Time;durP1;ratioP1;P1;durP2;ratioP2;P2;SDS_P1;SDS_P2;PMS_P1;PMS_P2;Temp;Humidity;BMP_temperature;BMP_pressure;BME280_temperature;BME280_humidity;BME280_pressure;Samples;Min_cycle;Max_cycle;Signal;HPM_P1;HPM_P2
2022/10/13 00:02:08;;;;;;;15.43;7.30;;;15.80;99.90;;;;;;7702275;74;26348;-59
2022/10/13 00:12:10;;;;;;;14.63;7.20;;;15.80;99.90;;;;;;7776376;74;26294;-59
2022/10/13 00:22:13;;;;;;;14.80;7.20;;;15.80;99.90;;;;;;7802433;75;26383;-59
2022/10/13 00:32:16;;;;;;;13.20;7.03;;;15.60;99.90;;;;;;7804522;74;26291;-59
2022/10/13 00:42:18;;;;;;;9.27;5.83;;;15.70;99.90;;;;;;7813325;75;26303;-59
2022/10/13 00:52:23;;;;;;;13.87;6.30;;;15.70;99.90;;;;;;7707809;75;26303;-57
2022/10/13 01:02:28;;;;;;;15.90;5.47;;;15.60;99.90;;;;;;7732386;76;26267;-57
2022/10/13 01:12:46;;;;;;;11.27;6.07;;;15.60;99.90;;;;;;7731469;76;26337;-59
2022/10/13 01:23:01;;;;;;;10.33;5.23;;;15.60;99.90;;;;;;7729870;76;26785;-57
2022/10/13 01:33:12;;;;;;;11.73;6.10;;;15.50;99.90;;;;;;7786709;75;26313;-60
2022/10/13 01:43:23;;;;;;;9.93;4.90;;;15.50;99.90;;;;;;7794014;75;26355;-58
2022/10/13 01:53:26;;;;;;;9.87;5.57;;;15.50;99.90;;;;;;7793361;75;26328;-57
2022/10/13 02:03:35;;;;;;;11.63;5.20;;;15.40;99.90;;;;;;7761271;74;26345;-59
2022/10/13 02:13:40;;;;;;;10.37;6.00;;;15.50;99.90;;;;;;7753047;75;26289;-58
2022/10/13 02:23:44;;;;;;;12.40;5.87;;;15.50;99.90;;;;;;7575299;76;26744;-59
2022/10/13 02:33:46;;;;;;;13.67;6.23;;;15.50;99.90;;;;;;7794825;75;26313;-58
2022/10/13 02:43:49;;;;;;;15.93;6.13;;;15.50;99.90;;;;;;7791082;75;26263;-60
2022/10/13 02:53:51;;;;;;;12.40;6.00;;;15.50;99.90;;;;;;7615945;76;26845;-59
2022/10/13 03:03:54;;;;;;;12.43;6.23;;;15.50;99.90;;;;;;7911413;74;26318;-59
2022/10/13 03:13:56;;;;;;;12.50;6.20;;;15.50;99.90;;;;;;7928744;74;26242;-58
2022/10/13 03:23:59;;;;;;;11.50;5.60;;;15.60;99.90;;;;;;7933931;72;26905;-60
2022/10/13 03:34:01;;;;;;;11.23;6.03;;;15.60;99.90;;;;;;7917858;74;26320;-60
2022/10/13 03:44:05;;;;;;;14.23;6.73;;;15.60;99.90;;;;;;7920516;74;26316;-59
2022/10/13 03:54:11;;;;;;;11.60;6.90;;;15.60;99.90;;;;;;7941407;72;27007;-58
2022/10/13 04:04:14;;;;;;;14.30;6.20;;;15.60;99.90;;;;;;7910859;74;26248;-57
2022/10/13 04:14:16;;;;;;;15.03;6.37;;;15.60;99.90;;;;;;7905584;74;26726;-60
2022/10/13 04:24:19;;;;;;;8.73;5.20;;;15.60;99.90;;;;;;7904747;74;26341;-59
2022/10/13 04:34:21;;;;;;;11.70;5.90;;;15.60;99.90;;;;;;7905955;74;27074;-59
2022/10/13 04:44:24;;;;;;;11.10;6.23;;;15.60;99.90;;;;;;7907463;74;26225;-59
2022/10/13 04:54:26;;;;;;;13.37;7.10;;;15.60;99.90;;;;;;7932729;72;26243;-59
2022/10/13 05:04:29;;;;;;;12.40;7.00;;;15.60;99.90;;;;;;7918862;74;26329;-59
2022/10/13 05:14:32;;;;;;;20.13;6.90;;;15.20;99.90;;;;;;7932576;74;26837;-59
2022/10/13 05:24:39;;;;;;;10.23;5.97;;;15.30;99.90;;;;;;7921037;74;26301;-58
2022/10/13 05:34:42;;;;;;;11.80;6.23;;;15.40;99.90;;;;;;7916849;74;26228;-59
2022/10/13 05:44:44;;;;;;;12.70;6.20;;;15.40;99.90;;;;;;7916715;74;26269;-60
2022/10/13 05:54:50;;;;;;;9.10;5.23;;;15.50;99.90;;;;;;7915976;74;26265;-59
2022/10/13 06:04:55;;;;;;;14.43;6.17;;;15.40;99.90;;;;;;7921394;74;26289;-59
2022/10/13 06:14:58;;;;;;;16.00;5.77;;;15.40;99.90;;;;;;7824625;74;26420;-58
2022/10/13 06:25:00;;;;;;;11.37;6.47;;;15.30;99.90;;;;;;7593128;77;26262;-59
2022/10/13 06:35:03;;;;;;;23.63;9.10;;;15.30;99.90;;;;;;7815942;74;26251;-58
2022/10/13 06:45:06;;;;;;;14.70;7.47;;;15.40;99.90;;;;;;7696434;76;26320;-59
2022/10/13 06:55:09;;;;;;;18.93;7.57;;;15.40;99.90;;;;;;7736739;75;26307;-58
2022/10/13 07:05:11;;;;;;;25.00;7.50;;;15.40;99.90;;;;;;7788869;75;26739;-57
2022/10/13 07:15:14;;;;;;;16.40;6.03;;;15.50;99.90;;;;;;7732839;75;26256;-58
2022/10/13 07:25:16;;;;;;;20.30;7.83;;;15.50;99.90;;;;;;7770067;75;26278;-57
2022/10/13 07:35:20;;;;;;;18.83;6.03;;;15.60;99.90;;;;;;7812780;75;26222;-54
2022/10/13 07:45:23;;;;;;;18.17;6.03;;;15.60;99.90;;;;;;7792028;75;26709;-52
2022/10/13 07:55:25;;;;;;;11.23;5.67;;;15.60;99.90;;;;;;7800685;75;26278;-56
2022/10/13 08:05:28;;;;;;;12.83;7.00;;;15.70;99.90;;;;;;7656796;76;26769;-54
2022/10/13 08:15:30;;;;;;;14.93;5.63;;;15.70;99.90;;;;;;7708419;76;26284;-58
2022/10/13 08:25:38;;;;;;;33.47;15.03;;;15.70;99.90;;;;;;7767120;74;26292;-59
2022/10/13 08:35:41;;;;;;;26.80;11.90;;;15.80;99.90;;;;;;7626400;76;26352;-61
2022/10/13 08:45:43;;;;;;;33.97;13.20;;;15.80;99.90;;;;;;7656227;76;26265;-59
2022/10/13 08:55:52;;;;;;;28.20;11.20;;;15.80;99.90;;;;;;7925084;73;26251;-59
2022/10/13 09:06:04;;;;;;;32.63;12.17;;;15.90;99.90;;;;;;7934497;73;26729;-58
2022/10/13 09:16:07;;;;;;;29.67;10.67;;;15.90;99.90;;;;;;7901232;73;26317;-59
2022/10/13 09:26:13;;;;;;;14.87;8.73;;;15.90;99.90;;;;;;7930483;73;26717;-60
2022/10/13 09:36:16;;;;;;;33.53;10.90;;;15.70;99.90;;;;;;7923435;73;26226;-58
2022/10/13 09:46:24;;;;;;;27.97;9.90;;;15.90;99.90;;;;;;7947104;72;26245;-57
2022/10/13 09:56:39;;;;;;;21.07;8.20;;;16.10;99.90;;;;;;7863424;73;26235;-61
2022/10/13 10:06:43;;;;;;;18.83;8.03;;;16.10;99.90;;;;;;7843192;73;26775;-59
2022/10/13 10:16:49;;;;;;;28.37;8.27;;;16.20;99.90;;;;;;7905739;73;26328;-62
2022/10/13 10:26:57;;;;;;;27.27;8.33;;;16.20;99.90;;;;;;7820359;73;26246;-61
2022/10/13 10:37:14;;;;;;;17.30;6.93;;;16.30;99.90;;;;;;7844708;73;26929;-62
2022/10/13 10:47:23;;;;;;;17.60;8.23;;;16.30;99.90;;;;;;7875177;73;26254;-61
2022/10/13 10:57:28;;;;;;;13.33;6.53;;;16.40;99.90;;;;;;7837320;73;26258;-61
2022/10/13 11:07:34;;;;;;;17.47;5.53;;;16.50;99.90;;;;;;7822670;73;26324;-61
2022/10/13 11:17:39;;;;;;;15.40;5.93;;;16.50;99.90;;;;;;7843349;73;26312;-62
2022/10/13 11:27:42;;;;;;;12.77;6.20;;;16.60;99.90;;;;;;7811854;73;26521;-62
2022/10/13 11:38:05;;;;;;;14.50;5.50;;;16.60;99.90;;;;;;7822586;73;26304;-62
2022/10/13 11:48:31;;;;;;;13.23;6.23;;;16.70;99.90;;;;;;7829292;73;26332;-63
2022/10/13 11:58:35;;;;;;;14.60;5.77;;;16.70;99.90;;;;;;7819652;73;26286;-62
2022/10/13 12:08:39;;;;;;;11.93;5.03;;;16.80;99.90;;;;;;7885077;73;26278;-60
2022/10/13 12:18:41;;;;;;;11.87;5.10;;;16.80;99.90;;;;;;7833725;73;26290;-61
2022/10/13 12:28:53;;;;;;;11.33;4.27;;;16.90;99.90;;;;;;7872104;73;26717;-60
2022/10/13 12:39:02;;;;;;;12.40;4.73;;;16.90;99.90;;;;;;7834476;73;26238;-61
2022/10/13 12:49:07;;;;;;;10.30;5.50;;;16.90;99.90;;;;;;7834890;73;26246;-62
2022/10/13 12:59:17;;;;;;;12.30;5.23;;;16.90;99.90;;;;;;7851162;73;26250;-61
2022/10/13 13:09:34;;;;;;;11.97;4.90;;;17.00;99.90;;;;;;7871497;73;26275;-61
2022/10/13 13:19:37;;;;;;;11.37;5.87;;;17.10;99.90;;;;;;7881815;73;26247;-62
2022/10/13 13:29:40;;;;;;;13.57;5.30;;;17.00;99.90;;;;;;7844667;73;26720;-61
2022/10/13 13:39:43;;;;;;;9.07;4.70;;;17.10;99.90;;;;;;7875311;73;26240;-62
2022/10/13 13:49:46;;;;;;;9.87;4.07;;;17.10;99.90;;;;;;7880917;73;26309;-62
2022/10/13 13:59:49;;;;;;;12.13;6.70;;;17.10;99.90;;;;;;7820244;73;26331;-62
2022/10/13 14:09:51;;;;;;;22.80;6.97;;;17.10;99.90;;;;;;7905263;73;26242;-61
2022/10/13 14:19:54;;;;;;;15.57;5.80;;;17.20;99.90;;;;;;7943231;73;26672;-61
2022/10/13 14:29:57;;;;;;;13.07;4.73;;;17.20;99.90;;;;;;7934415;73;26737;-61
2022/10/13 14:39:59;;;;;;;11.33;5.67;;;17.20;99.90;;;;;;7903501;73;26318;-62
2022/10/13 14:50:02;;;;;;;11.03;6.13;;;17.20;99.90;;;;;;7845464;73;26258;-61
2022/10/13 15:00:05;;;;;;;18.10;7.23;;;17.20;99.90;;;;;;7844999;73;26247;-61
2022/10/13 15:10:08;;;;;;;21.30;12.10;;;17.20;99.90;;;;;;7903295;73;26785;-62
2022/10/13 15:20:10;;;;;;;9.83;6.13;;;17.20;99.90;;;;;;7847247;73;27038;-62
2022/10/13 15:30:13;;;;;;;12.17;5.03;;;17.20;99.90;;;;;;7818539;73;26774;-60
2022/10/13 15:40:15;;;;;;;11.93;6.00;;;17.10;99.90;;;;;;7823515;73;26309;-62
2022/10/13 15:50:18;;;;;;;15.60;6.90;;;17.10;99.90;;;;;;7808221;73;26842;-61
2022/10/13 16:00:21;;;;;;;19.10;6.93;;;17.10;99.90;;;;;;7817088;73;26704;-60
2022/10/13 16:10:23;;;;;;;18.00;5.83;;;17.10;99.90;;;;;;7842349;73;26335;-61
2022/10/13 16:20:31;;;;;;;17.93;6.60;;;17.10;99.90;;;;;;7906647;73;26784;-61
2022/10/13 16:30:30;;;;;;;14.37;6.63;;;17.10;99.90;;;;;;7856839;73;27049;-61
2022/10/13 16:40:33;;;;;;;15.17;8.47;;;17.10;99.90;;;;;;7854764;73;26225;-61
2022/10/13 16:50:37;;;;;;;31.03;17.57;;;17.00;99.90;;;;;;7878220;73;26697;-62
2022/10/13 17:00:40;;;;;;;29.60;14.73;;;16.90;99.90;;;;;;7923639;73;26243;-61
2022/10/13 17:10:42;;;;;;;46.57;19.00;;;16.90;99.90;;;;;;7906626;73;26771;-61
2022/10/13 17:20:53;;;;;;;39.87;18.27;;;16.80;99.90;;;;;;7902969;73;26255;-61
2022/10/13 17:31:01;;;;;;;40.17;17.93;;;16.80;99.90;;;;;;7821812;73;26238;-62
2022/10/13 17:41:06;;;;;;;37.63;16.23;;;16.80;99.90;;;;;;7844689;73;26242;-61
2022/10/13 17:51:12;;;;;;;35.83;16.53;;;16.90;99.90;;;;;;7852369;73;26310;-61
2022/10/13 18:01:24;;;;;;;44.83;17.90;;;16.90;99.90;;;;;;7845842;73;26317;-60
2022/10/13 18:11:26;;;;;;;37.50;16.63;;;16.90;99.90;;;;;;7844388;73;26376;-61
2022/10/13 18:21:29;;;;;;;43.30;16.30;;;16.90;99.90;;;;;;7843987;73;26360;-62
2022/10/13 18:31:34;;;;;;;32.90;15.87;;;16.90;99.90;;;;;;7863270;73;27036;-61
2022/10/13 18:41:36;;;;;;;30.57;14.30;;;17.00;99.90;;;;;;7908383;73;26227;-62
2022/10/13 18:51:40;;;;;;;21.30;12.90;;;17.00;99.90;;;;;;7911201;73;26802;-61
2022/10/13 19:01:43;;;;;;;26.67;13.03;;;16.90;99.90;;;;;;7911575;73;26377;-61
2022/10/13 19:11:45;;;;;;;23.53;10.87;;;16.90;99.90;;;;;;7880201;73;26245;-62
2022/10/13 19:21:48;;;;;;;57.47;23.23;;;16.90;99.90;;;;;;7855304;73;26250;-61
2022/10/13 19:31:50;;;;;;;22.83;11.47;;;16.90;99.90;;;;;;7842825;73;26311;-61
2022/10/13 19:41:55;;;;;;;24.13;11.33;;;16.90;99.90;;;;;;7842541;73;26254;-61
2022/10/13 20:12:19;;;;;;;26.30;11.37;;;16.90;99.90;;;;;;7962532;73;26264;-57
2022/10/13 20:22:21;;;;;;;27.40;10.67;;;17.00;99.90;;;;;;7939669;73;26300;-61
2022/10/13 20:32:24;;;;;;;24.90;9.73;;;17.00;99.90;;;;;;7964950;73;26248;-58
2022/10/13 20:42:26;;;;;;;17.43;9.13;;;16.90;99.90;;;;;;7966485;73;26291;-61
2022/10/13 20:52:29;;;;;;;15.20;8.77;;;17.00;99.90;;;;;;7964416;73;26302;-60
2022/10/13 21:02:31;;;;;;;27.47;10.10;;;17.00;99.90;;;;;;7948237;73;26737;-58
2022/10/13 21:12:34;;;;;;;22.83;8.07;;;16.90;99.90;;;;;;7940472;73;26246;-62
2022/10/13 21:22:36;;;;;;;17.30;7.67;;;17.00;99.90;;;;;;7890686;73;26251;-61
2022/10/13 21:32:39;;;;;;;20.10;8.20;;;16.90;99.90;;;;;;7914013;73;26789;-61
2022/10/13 21:42:41;;;;;;;18.20;8.17;;;16.90;99.90;;;;;;7912151;73;26226;-61
2022/10/13 21:52:44;;;;;;;12.87;7.13;;;17.00;99.90;;;;;;7845263;73;26669;-61
2022/10/13 22:02:46;;;;;;;19.80;7.83;;;16.90;99.90;;;;;;7895637;73;26295;-62
2022/10/13 22:12:49;;;;;;;58.07;35.47;;;17.00;99.90;;;;;;7895923;73;26249;-61
2022/10/13 22:22:51;;;;;;;13.93;7.27;;;16.90;99.90;;;;;;7945093;72;26241;-59
2022/10/13 22:32:54;;;;;;;14.70;7.03;;;16.90;99.90;;;;;;7930984;73;26725;-61
2022/10/13 22:42:56;;;;;;;13.73;6.93;;;16.90;99.90;;;;;;7888256;73;26225;-61
2022/10/13 22:52:59;;;;;;;15.53;7.27;;;16.90;99.90;;;;;;7927325;73;26335;-61
2022/10/13 23:03:02;;;;;;;11.90;5.80;;;16.90;99.90;;;;;;7943713;73;27065;-60
2022/10/13 23:13:05;;;;;;;11.63;6.03;;;16.90;99.90;;;;;;7896080;73;26253;-61
2022/10/13 23:23:08;;;;;;;12.77;6.37;;;16.90;99.90;;;;;;7884220;73;26241;-61
2022/10/13 23:33:10;;;;;;;11.90;5.03;;;16.90;99.90;;;;;;7931254;73;26709;-61
2022/10/13 23:43:14;;;;;;;11.73;5.90;;;16.90;99.90;;;;;;7929391;73;26241;-61
2022/10/13 23:53:17;;;;;;;9.13;5.20;;;16.90;99.90;;;;;;7872919;73;26760;-62
